createdAt,value
2023-02-16T00:00:46.482Z,18.65
2023-02-16T00:01:49.047Z,18.63
2023-02-16T00:02:51.440Z,20.63
2023-02-16T00:03:55.285Z,21.45
2023-02-16T00:04:56.887Z,18.85
2023-02-16T00:05:59.521Z,20.48
2023-02-16T00:07:01.395Z,21.58
2023-02-16T00:08:03.974Z,21.90
2023-02-16T00:09:05.569Z,21.83
2023-02-16T00:10:08.480Z,23.65
2023-02-16T00:11:36.490Z,19.65
2023-02-16T00:12:56.427Z,22.55
2023-02-16T00:13:59.405Z,22.35
2023-02-16T00:15:01.894Z,19.00
2023-02-16T00:16:03.583Z,20.33
2023-02-16T00:17:07.155Z,19.65
2023-02-16T00:18:16.877Z,18.70
2023-02-16T00:19:22.185Z,21.77
2023-02-16T00:20:24.024Z,22.42
2023-02-16T00:21:26.773Z,21.13
2023-02-16T00:22:28.367Z,22.45
2023-02-16T00:23:30.977Z,18.17
2023-02-16T00:24:32.822Z,20.88
2023-02-16T00:25:35.472Z,19.65
2023-02-16T00:26:37.222Z,17.80
2023-02-16T00:27:39.787Z,19.92
2023-02-16T00:28:42.202Z,19.95
2023-02-16T00:29:46.169Z,19.85
2023-02-16T00:30:50.177Z,19.45
2023-02-16T00:31:53.117Z,19.92
2023-02-16T00:32:54.757Z,20.90
2023-02-16T00:33:57.288Z,18.65
2023-02-16T00:34:59.009Z,23.75
2023-02-16T00:36:01.499Z,21.33
2023-02-16T00:37:06.735Z,16.50
2023-02-16T00:38:08.376Z,19.17
2023-02-16T00:39:10.889Z,19.27
2023-02-16T00:40:13.580Z,19.27
2023-02-16T00:41:32.595Z,21.15
2023-02-16T00:42:35.748Z,19.42
2023-02-16T00:43:37.400Z,21.13
2023-02-16T00:44:42.972Z,20.95
2023-02-16T00:45:46.051Z,20.30
2023-02-16T00:46:49.138Z,20.02
2023-02-16T00:47:52.986Z,22.17
2023-02-16T00:48:54.521Z,21.08
2023-02-16T00:49:57.085Z,18.70
2023-02-16T00:50:58.644Z,22.48
2023-02-16T00:52:01.349Z,20.27
2023-02-16T00:53:02.961Z,21.20
2023-02-16T00:54:05.672Z,20.67
2023-02-16T00:55:10.083Z,21.58
2023-02-16T00:56:18.075Z,20.50
2023-02-16T00:57:20.618Z,21.67
2023-02-16T00:58:26.636Z,21.00
2023-02-16T00:59:28.300Z,22.75
2023-02-16T01:00:35.014Z,23.15
2023-02-16T01:01:38.404Z,20.75
2023-02-16T01:02:41.219Z,23.48
2023-02-16T01:03:44.413Z,21.92
2023-02-16T01:04:48.859Z,22.80
2023-02-16T01:06:11.593Z,21.70
2023-02-16T01:07:33.260Z,23.15
2023-02-16T01:08:53.411Z,21.33
2023-02-16T01:10:13.660Z,18.27
2023-02-16T01:11:16.202Z,16.15
2023-02-16T01:12:20.842Z,20.17
2023-02-16T01:13:24.203Z,20.98
2023-02-16T01:14:26.277Z,22.35
2023-02-16T01:15:28.996Z,22.25
2023-02-16T01:16:37.360Z,21.48
2023-02-16T01:17:41.358Z,20.33
2023-02-16T01:18:42.986Z,20.83
2023-02-16T01:19:45.556Z,22.15
2023-02-16T01:20:48.067Z,19.70
2023-02-16T01:21:50.769Z,20.27
2023-02-16T01:22:52.622Z,19.63
2023-02-16T01:23:55.156Z,21.55
2023-02-16T01:24:56.687Z,20.73
2023-02-16T01:25:59.549Z,20.45
2023-02-16T01:27:01.196Z,21.80
2023-02-16T01:28:04.376Z,21.90
2023-02-16T01:29:06.592Z,20.25
2023-02-16T01:30:15.388Z,18.73
2023-02-16T01:31:17.622Z,21.17
2023-02-16T01:32:20.559Z,20.27
2023-02-16T01:33:23.790Z,21.38
2023-02-16T01:34:26.526Z,22.38
2023-02-16T01:35:31.578Z,20.58
2023-02-16T01:36:36.284Z,21.88
2023-02-16T01:37:37.962Z,22.10
2023-02-16T01:38:40.598Z,21.85
2023-02-16T01:39:42.201Z,25.08
2023-02-16T01:40:51.965Z,20.17
2023-02-16T01:42:09.464Z,21.67
2023-02-16T01:43:19.847Z,20.33
2023-02-16T01:44:24.705Z,18.88
2023-02-16T01:45:33.978Z,24.02
2023-02-16T01:46:39.758Z,20.50
2023-02-16T01:47:48.485Z,24.23
2023-02-16T01:48:51.906Z,20.55
2023-02-16T01:49:54.610Z,23.63
2023-02-16T01:51:04.317Z,21.05
2023-02-16T01:52:14.140Z,22.75
2023-02-16T01:53:20.989Z,20.98
2023-02-16T01:54:34.047Z,21.67
2023-02-16T01:55:41.588Z,21.25
2023-02-16T01:56:49.065Z,20.75
2023-02-16T01:57:56.260Z,20.90
2023-02-16T01:59:04.772Z,20.20
2023-02-16T02:00:17.445Z,21.27
2023-02-16T02:01:40.548Z,20.52
2023-02-16T02:02:47.971Z,23.27
2023-02-16T02:04:09.727Z,21.40
2023-02-16T02:05:37.803Z,21.77
2023-02-16T02:06:39.506Z,19.88
2023-02-16T02:07:48.388Z,20.23
2023-02-16T02:08:57.208Z,25.50
2023-02-16T02:10:07.138Z,21.70
2023-02-16T02:11:14.337Z,20.70
2023-02-16T02:12:28.767Z,24.98
2023-02-16T02:13:37.963Z,23.33
2023-02-16T02:14:41.462Z,25.33
2023-02-16T02:15:45.027Z,21.70
2023-02-16T02:16:56.678Z,20.80
2023-02-16T02:17:58.701Z,20.63
2023-02-16T02:19:02.712Z,21.92
2023-02-16T02:20:13.866Z,23.70
2023-02-16T02:21:50.314Z,21.15
2023-02-16T02:23:32.768Z,21.40
2023-02-16T02:24:59.570Z,23.00
2023-02-16T02:26:44.427Z,22.88
2023-02-16T02:27:53.915Z,19.15
2023-02-16T02:29:17.641Z,19.60
2023-02-16T02:30:34.506Z,19.42
2023-02-16T02:31:51.429Z,20.80
2023-02-16T02:33:10.613Z,19.42
2023-02-16T02:34:20.493Z,20.20
2023-02-16T02:35:39.822Z,19.05
2023-02-16T02:36:48.929Z,20.58
2023-02-16T02:37:59.453Z,22.45
2023-02-16T02:39:16.373Z,16.85
2023-02-16T02:40:30.129Z,20.92
2023-02-16T02:41:59.683Z,22.90
2023-02-16T02:43:09.357Z,20.73
2023-02-16T02:44:12.980Z,21.77
2023-02-16T02:45:19.574Z,17.98
2023-02-16T02:46:25.597Z,19.83
2023-02-16T02:47:38.888Z,19.40
2023-02-16T02:48:40.595Z,20.20
2023-02-16T02:49:50.672Z,18.52
2023-02-16T02:51:14.102Z,18.27
2023-02-16T02:52:16.890Z,21.05
2023-02-16T02:53:19.149Z,19.70
2023-02-16T02:54:42.827Z,18.58
2023-02-16T02:56:15.551Z,19.75
2023-02-16T02:57:40.400Z,20.65
2023-02-16T02:59:06.889Z,19.42
2023-02-16T03:00:28.607Z,21.52
2023-02-16T03:01:32.894Z,23.65
2023-02-16T03:02:36.490Z,23.83
2023-02-16T03:03:43.729Z,24.65
2023-02-16T03:04:47.034Z,23.90
2023-02-16T03:05:54.402Z,25.55
2023-02-16T03:06:59.067Z,26.13
2023-02-16T03:08:14.333Z,20.35
2023-02-16T03:09:16.857Z,24.00
2023-02-16T03:10:41.042Z,24.65
2023-02-16T03:12:12.652Z,27.30
2023-02-16T03:13:19.861Z,24.63
2023-02-16T03:14:26.758Z,23.67
2023-02-16T03:15:31.220Z,25.15
2023-02-16T03:16:37.797Z,25.67
2023-02-16T03:17:59.434Z,26.40
2023-02-16T03:19:21.246Z,26.80
2023-02-16T03:20:41.301Z,28.63
2023-02-16T03:22:02.407Z,22.45
2023-02-16T03:23:24.897Z,24.73
2023-02-16T03:24:47.319Z,28.58
2023-02-16T03:26:09.475Z,28.27
2023-02-16T03:27:31.555Z,26.80
2023-02-16T03:28:54.901Z,28.88
2023-02-16T03:30:01.141Z,26.60
2023-02-16T03:31:06.941Z,27.20
2023-02-16T03:32:09.828Z,26.50
2023-02-16T03:33:11.609Z,28.90
2023-02-16T03:34:15.454Z,28.38
2023-02-16T03:35:17.260Z,27.73
2023-02-16T03:36:22.961Z,33.10
2023-02-16T03:37:24.593Z,32.58
2023-02-16T03:38:29.141Z,32.10
2023-02-16T03:39:31.923Z,31.08
2023-02-16T03:40:36.462Z,31.55
2023-02-16T03:41:40.653Z,30.65
2023-02-16T03:42:50.174Z,31.42
2023-02-16T03:43:51.874Z,31.55
2023-02-16T03:44:54.813Z,28.75
2023-02-16T03:45:58.079Z,30.33
2023-02-16T03:47:00.964Z,29.85
2023-02-16T03:48:02.593Z,31.08
2023-02-16T03:49:05.306Z,29.25
2023-02-16T03:50:08.061Z,30.35
2023-02-16T03:51:10.593Z,31.73
2023-02-16T03:52:12.274Z,32.60
2023-02-16T03:53:17.024Z,33.53
2023-02-16T03:54:19.622Z,32.92
2023-02-16T03:55:22.129Z,33.35
2023-02-16T03:56:23.958Z,30.27
2023-02-16T03:57:26.513Z,33.72
2023-02-16T03:58:28.196Z,31.50
2023-02-16T03:59:30.898Z,34.53
2023-02-16T04:00:33.290Z,28.73
2023-02-16T04:01:37.169Z,32.83
2023-02-16T04:02:38.820Z,33.58
2023-02-16T04:03:41.314Z,32.75
2023-02-16T04:04:42.943Z,34.47
2023-02-16T04:05:45.884Z,31.00
2023-02-16T04:06:47.472Z,34.85
2023-02-16T04:07:50.146Z,32.50
2023-02-16T04:08:51.753Z,33.05
2023-02-16T04:09:54.290Z,31.70
2023-02-16T04:10:57.413Z,32.63
2023-02-16T04:12:17.481Z,35.80
2023-02-16T04:13:20.221Z,37.08
2023-02-16T04:14:21.925Z,34.97
2023-02-16T04:15:27.880Z,36.08
2023-02-16T04:16:29.552Z,31.48
2023-02-16T04:17:33.512Z,31.63
2023-02-16T04:18:35.045Z,34.13
2023-02-16T04:19:37.643Z,30.73
2023-02-16T04:20:39.262Z,32.22
2023-02-16T04:21:42.943Z,31.83
2023-02-16T04:22:46.593Z,34.80
2023-02-16T04:23:48.276Z,33.15
2023-02-16T04:24:51.957Z,34.30
2023-02-16T04:25:54.630Z,31.88
2023-02-16T04:26:56.221Z,33.35
2023-02-16T04:27:58.835Z,31.73
2023-02-16T04:29:00.731Z,33.30
2023-02-16T04:30:04.329Z,36.72
2023-02-16T04:31:06.253Z,30.95
2023-02-16T04:32:09.252Z,32.35
2023-02-16T04:33:12.315Z,31.27
2023-02-16T04:34:14.876Z,33.17
2023-02-16T04:35:17.524Z,33.00
2023-02-16T04:36:20.131Z,28.75
2023-02-16T04:37:22.931Z,31.52
2023-02-16T04:38:26.147Z,32.83
2023-02-16T04:39:28.818Z,35.33
2023-02-16T04:40:30.409Z,33.78
2023-02-16T04:41:33.045Z,33.05
2023-02-16T04:42:34.765Z,33.55
2023-02-16T04:43:37.398Z,31.23
2023-02-16T04:44:39.000Z,33.65
2023-02-16T04:45:41.664Z,34.42
2023-02-16T04:46:43.302Z,33.58
2023-02-16T04:47:46.328Z,31.25
2023-02-16T04:48:49.770Z,31.42
2023-02-16T04:49:52.411Z,31.70
2023-02-16T04:50:54.036Z,30.63
2023-02-16T04:51:56.722Z,31.02
2023-02-16T04:52:58.487Z,30.30
2023-02-16T04:54:01.567Z,29.52
2023-02-16T04:55:03.239Z,30.10
2023-02-16T04:56:06.188Z,31.40
2023-02-16T04:57:08.355Z,34.53
2023-02-16T04:58:10.878Z,31.90
2023-02-16T04:59:12.775Z,28.95
2023-02-16T05:00:15.845Z,30.92
2023-02-16T05:01:22.416Z,31.58
2023-02-16T05:02:24.170Z,30.40
2023-02-16T05:03:26.800Z,30.10
2023-02-16T05:04:29.844Z,29.80
2023-02-16T05:05:33.472Z,29.50
2023-02-16T05:06:35.706Z,30.02
2023-02-16T05:07:38.553Z,29.38
2023-02-16T05:08:40.535Z,29.17
2023-02-16T05:09:43.381Z,30.20
2023-02-16T05:10:44.961Z,29.73
2023-02-16T05:12:05.357Z,32.47
2023-02-16T05:13:42.386Z,23.23
2023-02-16T05:14:46.150Z,30.70
2023-02-16T05:15:48.831Z,32.60
2023-02-16T05:16:51.091Z,28.67
2023-02-16T05:17:53.645Z,30.88
2023-02-16T05:18:58.338Z,29.60
2023-02-16T05:20:02.812Z,30.05
2023-02-16T05:21:23.438Z,30.63
2023-02-16T05:22:26.574Z,26.73
2023-02-16T05:23:28.160Z,27.77
2023-02-16T05:24:30.817Z,32.75
2023-02-16T05:25:32.434Z,31.38
2023-02-16T05:26:36.192Z,32.65
2023-02-16T05:27:38.812Z,33.83
2023-02-16T05:28:40.517Z,31.33
2023-02-16T05:29:43.258Z,30.05
2023-02-16T05:30:45.212Z,29.65
2023-02-16T05:31:48.599Z,31.90
2023-02-16T05:32:50.212Z,31.10
2023-02-16T05:33:53.367Z,31.75
2023-02-16T05:34:54.939Z,29.65
2023-02-16T05:35:58.851Z,30.90
2023-02-16T05:37:00.459Z,33.17
2023-02-16T05:38:03.109Z,34.17
2023-02-16T05:39:05.002Z,31.52
2023-02-16T05:40:09.078Z,34.72
2023-02-16T05:41:11.002Z,31.58
2023-02-16T05:42:13.571Z,30.45
2023-02-16T05:43:17.582Z,31.45
2023-02-16T05:44:20.362Z,29.55
2023-02-16T05:45:21.963Z,32.95
2023-02-16T05:46:25.598Z,33.42
2023-02-16T05:47:33.691Z,33.15
2023-02-16T05:48:35.365Z,32.92
2023-02-16T05:49:38.295Z,27.98
2023-02-16T05:50:39.891Z,30.83
2023-02-16T05:51:43.980Z,31.05
2023-02-16T05:52:46.169Z,31.75
2023-02-16T05:53:48.953Z,32.72
2023-02-16T05:54:51.660Z,30.30
2023-02-16T05:55:53.587Z,33.15
2023-02-16T05:56:59.358Z,36.85
2023-02-16T05:58:00.998Z,33.03
2023-02-16T05:59:03.757Z,34.63
2023-02-16T06:00:06.540Z,38.75
2023-02-16T06:01:09.135Z,36.22
2023-02-16T06:02:11.914Z,36.22
2023-02-16T06:03:14.755Z,34.63
2023-02-16T06:04:17.623Z,33.53
2023-02-16T06:05:19.395Z,35.67
2023-02-16T06:06:22.052Z,34.45
2023-02-16T06:07:25.117Z,34.28
2023-02-16T06:08:28.096Z,32.05
2023-02-16T06:09:31.521Z,38.53
2023-02-16T06:10:33.211Z,33.08
2023-02-16T06:11:39.257Z,31.70
2023-02-16T06:12:42.741Z,35.90
2023-02-16T06:13:46.603Z,33.22
2023-02-16T06:14:52.600Z,35.22
2023-02-16T06:15:56.009Z,35.70
2023-02-16T06:16:58.806Z,34.10
2023-02-16T06:18:03.223Z,36.47
2023-02-16T06:19:06.705Z,37.60
2023-02-16T06:20:09.701Z,34.88
2023-02-16T06:21:12.616Z,34.88
2023-02-16T06:22:15.384Z,35.90
2023-02-16T06:23:18.487Z,35.13
2023-02-16T06:24:21.084Z,36.75
2023-02-16T06:25:22.791Z,35.45
2023-02-16T06:26:25.888Z,32.88
2023-02-16T06:27:28.823Z,36.97
2023-02-16T06:28:34.488Z,35.45
2023-02-16T06:29:37.066Z,37.83
2023-02-16T06:30:38.758Z,36.95
2023-02-16T06:31:42.823Z,34.85
2023-02-16T06:32:44.584Z,33.78
2023-02-16T06:33:49.888Z,35.15
2023-02-16T06:34:52.484Z,37.80
2023-02-16T06:35:54.324Z,32.95
2023-02-16T06:36:56.998Z,35.50
2023-02-16T06:37:59.201Z,33.75
2023-02-16T06:39:03.330Z,34.35
2023-02-16T06:40:07.230Z,32.20
2023-02-16T06:41:09.437Z,33.83
2023-02-16T06:42:14.627Z,34.95
2023-02-16T06:43:16.356Z,33.50
2023-02-16T06:44:19.162Z,32.58
2023-02-16T06:45:20.894Z,39.17
2023-02-16T06:46:23.578Z,36.20
2023-02-16T06:47:26.316Z,36.13
2023-02-16T06:48:29.025Z,34.70
2023-02-16T06:49:33.098Z,34.78
2023-02-16T06:50:35.486Z,32.10
2023-02-16T06:51:39.062Z,32.35
2023-02-16T06:52:40.696Z,34.47
2023-02-16T06:53:43.243Z,32.53
2023-02-16T06:54:46.229Z,37.20
2023-02-16T06:55:51.698Z,33.22
2023-02-16T06:56:54.424Z,32.15
2023-02-16T06:57:56.026Z,31.08
2023-02-16T06:58:58.571Z,33.03
2023-02-16T07:00:00.203Z,32.78
2023-02-16T07:01:03.473Z,31.83
2023-02-16T07:02:05.356Z,32.53
2023-02-16T07:03:08.271Z,32.78
2023-02-16T07:04:11.614Z,34.60
2023-02-16T07:05:13.196Z,35.85
2023-02-16T07:06:15.727Z,31.20
2023-02-16T07:07:18.515Z,33.17
2023-02-16T07:08:21.189Z,31.80
2023-02-16T07:09:22.910Z,33.17
2023-02-16T07:10:29.305Z,32.63
2023-02-16T07:11:37.310Z,33.58
2023-02-16T07:12:38.935Z,31.45
2023-02-16T07:13:41.911Z,31.88
2023-02-16T07:14:44.306Z,33.78
2023-02-16T07:15:47.884Z,34.33
2023-02-16T07:16:50.505Z,34.80
2023-02-16T07:17:54.022Z,32.72
2023-02-16T07:18:56.651Z,37.03
2023-02-16T07:19:59.998Z,34.25
2023-02-16T07:21:03.203Z,36.08
2023-02-16T07:22:07.881Z,37.15
2023-02-16T07:23:10.583Z,35.05
2023-02-16T07:24:13.169Z,35.78
2023-02-16T07:25:15.920Z,37.55
2023-02-16T07:26:18.924Z,37.15
2023-02-16T07:27:21.476Z,34.38
2023-02-16T07:28:24.112Z,33.33
2023-02-16T07:29:25.735Z,35.72
2023-02-16T07:30:28.615Z,35.45
2023-02-16T07:31:31.240Z,33.95
2023-02-16T07:32:33.002Z,34.67
2023-02-16T07:33:35.574Z,35.00
2023-02-16T07:34:37.300Z,36.33
2023-02-16T07:35:39.951Z,32.95
2023-02-16T07:36:41.718Z,33.38
2023-02-16T07:37:44.195Z,37.42
2023-02-16T07:38:45.784Z,32.00
2023-02-16T07:39:48.994Z,34.88
2023-02-16T07:40:50.581Z,32.58
2023-02-16T07:41:54.516Z,35.00
2023-02-16T07:42:59.701Z,35.70
2023-02-16T07:44:02.462Z,34.28
2023-02-16T07:45:05.939Z,35.75
2023-02-16T07:46:09.881Z,36.58
2023-02-16T07:47:16.792Z,35.95
2023-02-16T07:48:18.658Z,34.67
2023-02-16T07:49:21.363Z,35.63
2023-02-16T07:50:23.274Z,35.13
2023-02-16T07:51:27.298Z,34.45
2023-02-16T07:52:31.200Z,36.05
2023-02-16T07:53:34.080Z,36.72
2023-02-16T07:54:35.765Z,33.42
2023-02-16T07:55:40.653Z,36.15
2023-02-16T07:56:43.302Z,40.35
2023-02-16T07:57:49.276Z,37.88
2023-02-16T07:58:52.839Z,37.55
2023-02-16T07:59:55.754Z,38.13
2023-02-16T08:01:07.275Z,35.83
2023-02-16T08:02:16.853Z,36.10
2023-02-16T08:03:19.550Z,35.20
2023-02-16T08:04:21.173Z,37.55
2023-02-16T08:05:24.413Z,34.78
2023-02-16T08:06:27.306Z,36.00
2023-02-16T08:07:30.029Z,37.83
2023-02-16T08:08:32.371Z,36.20
2023-02-16T08:09:35.549Z,40.13
2023-02-16T08:10:37.082Z,34.05
2023-02-16T08:11:39.982Z,35.47
2023-02-16T08:12:41.693Z,38.75
2023-02-16T08:13:46.211Z,38.80
2023-02-16T08:14:48.804Z,40.55
2023-02-16T08:15:50.581Z,36.88
2023-02-16T08:16:55.596Z,38.95
2023-02-16T08:17:59.317Z,40.42
2023-02-16T08:19:01.449Z,37.47
2023-02-16T08:20:06.118Z,38.83
2023-02-16T08:21:14.384Z,34.95
2023-02-16T08:22:18.307Z,36.95
2023-02-16T08:23:20.889Z,37.45
2023-02-16T08:24:24.960Z,33.80
2023-02-16T08:25:26.570Z,38.47
2023-02-16T08:26:31.510Z,36.95
2023-02-16T08:27:34.035Z,34.33
2023-02-16T08:28:37.932Z,36.42
2023-02-16T08:29:42.671Z,37.08
2023-02-16T08:30:44.873Z,38.00
2023-02-16T08:31:49.049Z,39.05
2023-02-16T08:32:51.868Z,36.88
2023-02-16T08:33:55.954Z,38.40
2023-02-16T08:34:58.585Z,35.53
2023-02-16T08:36:00.174Z,34.15
2023-02-16T08:37:02.900Z,36.28
2023-02-16T08:38:09.018Z,35.72
2023-02-16T08:39:14.906Z,38.90
2023-02-16T08:40:18.405Z,41.40
2023-02-16T08:41:23.184Z,34.50
2023-02-16T08:42:26.203Z,35.22
2023-02-16T08:43:27.788Z,39.17
2023-02-16T08:44:30.519Z,36.58
2023-02-16T08:45:33.492Z,37.70
2023-02-16T08:46:39.410Z,35.90
2023-02-16T08:47:41.963Z,35.95
2023-02-16T08:48:43.942Z,40.70
2023-02-16T08:49:47.225Z,36.28
2023-02-16T08:50:53.992Z,43.83
2023-02-16T08:51:59.804Z,40.65
2023-02-16T08:53:02.481Z,39.15
2023-02-16T08:54:07.847Z,38.80
2023-02-16T08:55:10.486Z,40.33
2023-02-16T08:56:13.469Z,41.50
2023-02-16T08:57:16.093Z,38.53
2023-02-16T08:58:17.842Z,38.33
2023-02-16T08:59:22.552Z,41.63
2023-02-16T09:00:37.735Z,37.10
2023-02-16T09:01:41.665Z,34.60
2023-02-16T09:02:43.339Z,38.88
2023-02-16T09:03:47.266Z,33.15
2023-02-16T09:04:49.722Z,34.90
2023-02-16T09:05:54.980Z,36.90
2023-02-16T09:06:59.451Z,37.03
2023-02-16T09:08:01.234Z,36.17
2023-02-16T09:09:05.020Z,39.28
2023-02-16T09:10:10.693Z,34.58
2023-02-16T09:11:14.235Z,35.85
2023-02-16T09:12:16.757Z,36.92
2023-02-16T09:13:21.733Z,34.20
2023-02-16T09:14:24.443Z,34.38
2023-02-16T09:15:27.619Z,31.80
2023-02-16T09:16:33.857Z,33.92
2023-02-16T09:17:37.532Z,35.83
2023-02-16T09:18:41.226Z,31.55
2023-02-16T09:19:44.643Z,37.50
2023-02-16T09:20:47.089Z,33.55
2023-02-16T09:21:52.070Z,30.85
2023-02-16T09:22:53.992Z,35.42
2023-02-16T09:23:58.340Z,34.55
2023-02-16T09:25:01.304Z,33.30
2023-02-16T09:26:07.747Z,35.00
2023-02-16T09:27:11.618Z,36.65
2023-02-16T09:28:13.872Z,35.22
2023-02-16T09:29:16.644Z,32.03
2023-02-16T09:30:21.850Z,33.58
2023-02-16T09:31:28.692Z,35.95
2023-02-16T09:32:31.925Z,33.67
2023-02-16T09:33:35.931Z,33.80
2023-02-16T09:34:39.029Z,34.60
2023-02-16T09:35:43.224Z,34.30
2023-02-16T09:36:47.548Z,35.88
2023-02-16T09:37:50.796Z,35.50
2023-02-16T09:38:54.130Z,34.58
2023-02-16T09:39:56.909Z,36.97
2023-02-16T09:41:00.207Z,35.63
2023-02-16T09:42:19.534Z,31.13
2023-02-16T09:43:35.016Z,37.25
2023-02-16T09:44:49.383Z,31.45
2023-02-16T09:45:54.889Z,33.65
2023-02-16T09:47:01.926Z,34.15
2023-02-16T09:48:04.868Z,33.70
2023-02-16T09:49:20.366Z,35.33
2023-02-16T09:50:50.327Z,32.67
2023-02-16T09:51:46.788Z,34.22
2023-02-16T09:52:54.510Z,33.22
2023-02-16T09:54:02.288Z,34.33
2023-02-16T09:55:08.223Z,35.60
2023-02-16T09:56:22.184Z,33.83
2023-02-16T09:57:40.718Z,35.97
2023-02-16T09:58:48.122Z,34.17
2023-02-16T09:59:57.115Z,33.97
2023-02-16T10:01:08.466Z,37.17
2023-02-16T10:02:28.455Z,34.20
2023-02-16T10:03:47.709Z,33.90
2023-02-16T10:05:03.307Z,36.40
2023-02-16T10:06:25.625Z,37.83
2023-02-16T10:07:42.527Z,35.00
2023-02-16T10:08:50.174Z,35.22
2023-02-16T10:09:55.301Z,35.42
2023-02-16T10:11:04.764Z,34.85
2023-02-16T10:12:13.778Z,32.80
2023-02-16T10:13:23.766Z,35.45
2023-02-16T10:14:33.931Z,33.83
2023-02-16T10:15:38.153Z,33.83
2023-02-16T10:16:44.217Z,35.63
2023-02-16T10:17:50.014Z,32.75
2023-02-16T10:18:55.409Z,33.97
2023-02-16T10:20:06.159Z,34.33
2023-02-16T10:21:17.679Z,33.50
2023-02-16T10:22:29.663Z,32.70
2023-02-16T10:23:46.129Z,33.30
2023-02-16T10:24:59.061Z,35.22
2023-02-16T10:26:07.298Z,33.03
2023-02-16T10:27:16.001Z,33.33
2023-02-16T10:28:22.767Z,33.78
2023-02-16T10:29:26.894Z,29.95
2023-02-16T10:30:33.688Z,32.78
2023-02-16T10:31:41.852Z,34.10
2023-02-16T10:41:53.576Z,29.88
2023-02-16T10:43:05.203Z,30.05
2023-02-16T10:44:13.734Z,30.40
2023-02-16T10:45:26.294Z,28.27
2023-02-16T10:46:35.491Z,27.70
2023-02-16T10:47:38.939Z,29.58
2023-02-16T10:48:41.663Z,29.15
2023-02-16T10:49:44.565Z,30.13
2023-02-16T10:50:56.508Z,29.58
2023-02-16T10:52:02.246Z,26.38
2023-02-16T10:53:10.324Z,24.92
2023-02-16T10:54:18.179Z,29.65
2023-02-16T10:55:19.808Z,28.70
2023-02-16T10:56:38.216Z,28.13
2023-02-16T10:57:41.782Z,28.20
2023-02-16T10:58:44.886Z,28.73
2023-02-16T10:59:47.211Z,28.55
2023-02-16T11:00:55.667Z,27.10
2023-02-16T11:01:59.105Z,27.00
2023-02-16T11:03:04.019Z,28.08
2023-02-16T11:04:06.259Z,27.70
2023-02-16T11:05:32.264Z,25.35
2023-02-16T11:06:36.482Z,33.22
2023-02-16T11:07:53.666Z,24.05
2023-02-16T11:08:59.284Z,28.90
2023-02-16T11:10:22.090Z,28.50
2023-02-16T11:11:26.286Z,24.27
2023-02-16T11:12:32.845Z,26.10
2023-02-16T11:13:38.033Z,23.92
2023-02-16T11:14:39.910Z,24.02
2023-02-16T11:15:42.695Z,24.95
2023-02-16T11:16:45.871Z,25.75
2023-02-16T11:17:53.477Z,26.73
2023-02-16T11:19:02.239Z,26.13
2023-02-16T11:20:09.581Z,27.40
2023-02-16T11:21:13.319Z,25.90
2023-02-16T11:22:26.750Z,25.13
2023-02-16T11:23:31.676Z,24.45
2023-02-16T11:24:36.867Z,27.83
2023-02-16T11:25:42.650Z,26.50
2023-02-16T11:26:45.238Z,25.30
2023-02-16T11:27:54.571Z,26.70
2023-02-16T11:29:08.771Z,24.90
2023-02-16T11:30:23.434Z,26.95
2023-02-16T11:31:32.749Z,25.73
2023-02-16T11:32:34.494Z,24.02
2023-02-16T11:33:38.594Z,23.17
2023-02-16T11:34:43.857Z,25.75
2023-02-16T11:35:46.236Z,26.33
2023-02-16T11:36:49.310Z,22.65
2023-02-16T11:37:52.266Z,23.25
2023-02-16T11:39:00.383Z,23.45
2023-02-16T11:40:09.206Z,22.42
2023-02-16T11:41:11.232Z,26.42
2023-02-16T11:42:23.524Z,25.67
2023-02-16T11:43:28.460Z,26.98
2023-02-16T11:44:37.899Z,23.67
2023-02-16T11:45:41.951Z,24.20
2023-02-16T11:46:43.525Z,25.23
2023-02-16T11:47:54.685Z,24.02
2023-02-16T11:48:57.358Z,27.58
2023-02-16T11:50:09.813Z,23.95
2023-02-16T11:51:15.254Z,22.42
2023-02-16T11:52:28.334Z,24.17
2023-02-16T11:53:33.243Z,22.38
2023-02-16T11:55:01.045Z,24.30
2023-02-16T11:56:24.021Z,22.20
2023-02-16T11:57:31.033Z,23.40
2023-02-16T11:58:32.686Z,22.88
2023-02-16T11:59:38.741Z,23.60
2023-02-16T12:00:45.046Z,23.35
2023-02-16T12:02:18.764Z,23.67
2023-02-16T12:03:33.306Z,24.17
2023-02-16T12:04:51.793Z,22.63
2023-02-16T12:06:13.316Z,24.00
2023-02-16T12:07:28.837Z,21.52
2023-02-16T12:08:53.667Z,23.50
2023-02-16T12:10:04.635Z,21.42
2023-02-16T12:11:19.371Z,23.13
2023-02-16T12:12:34.106Z,22.70
2023-02-16T12:13:42.693Z,21.85
2023-02-16T12:14:58.596Z,22.88
2023-02-16T12:16:14.196Z,22.17
2023-02-16T12:17:45.596Z,22.42
2023-02-16T12:19:00.057Z,22.95
2023-02-16T12:20:14.983Z,23.90
2023-02-16T12:21:23.123Z,25.48
2023-02-16T12:22:35.111Z,24.45
2023-02-16T12:23:41.177Z,22.98
2023-02-16T12:24:53.343Z,22.63
2023-02-16T12:26:11.421Z,22.98
2023-02-16T12:27:21.059Z,22.10
2023-02-16T12:28:28.875Z,28.17
2023-02-16T12:29:44.986Z,27.60
2023-02-16T12:30:56.706Z,27.08
2023-02-16T12:32:11.111Z,22.05
2023-02-16T12:33:27.718Z,24.63
2023-02-16T12:34:42.751Z,24.65
2023-02-16T12:36:00.804Z,23.30
2023-02-16T12:37:07.819Z,22.90
2023-02-16T12:38:22.812Z,24.15
2023-02-16T12:39:35.438Z,22.38
2023-02-16T12:40:50.523Z,23.77
2023-02-16T12:42:15.731Z,26.67
2023-02-16T12:43:33.677Z,25.05
2023-02-16T12:44:44.641Z,25.75
2023-02-16T12:45:47.338Z,25.17
2023-02-16T12:46:58.715Z,22.58
2023-02-16T12:48:07.253Z,25.10
2023-02-16T12:49:17.734Z,24.17
2023-02-16T12:50:23.701Z,24.50
2023-02-16T12:51:29.704Z,25.02
2023-02-16T12:52:38.841Z,22.27
2023-02-16T12:53:46.916Z,25.35
2023-02-16T12:54:54.051Z,23.95
2023-02-16T12:56:00.874Z,21.98
2023-02-16T12:57:08.748Z,22.67
2023-02-16T12:58:20.714Z,22.15
2023-02-16T12:59:28.600Z,27.00
2023-02-16T13:00:42.025Z,24.30
2023-02-16T13:01:46.635Z,25.02
2023-02-16T13:02:54.858Z,25.08
2023-02-16T13:03:59.892Z,24.58
2023-02-16T13:05:10.213Z,23.77
2023-02-16T13:06:19.549Z,25.13
2023-02-16T13:07:31.794Z,26.55
2023-02-16T13:08:39.865Z,24.67
2023-02-16T13:09:52.263Z,25.67
2023-02-16T13:10:58.935Z,24.52
2023-02-16T13:12:11.556Z,24.40
2023-02-16T13:13:17.630Z,24.65
2023-02-16T13:14:23.526Z,25.88
2023-02-16T13:15:31.689Z,23.25
2023-02-16T13:16:45.036Z,25.80
2023-02-16T13:17:53.880Z,24.83
2023-02-16T13:18:56.355Z,24.52
2023-02-16T13:19:58.835Z,21.17
2023-02-16T13:21:05.112Z,21.65
2023-02-16T13:22:32.216Z,21.08
2023-02-16T13:23:44.993Z,23.75
2023-02-16T13:25:02.661Z,25.40
2023-02-16T13:26:36.797Z,24.55
2023-02-16T13:27:49.160Z,22.38
2023-02-16T13:29:24.033Z,21.98
2023-02-16T13:30:49.556Z,24.30
2023-02-16T13:32:07.148Z,22.27
2023-02-16T13:33:29.496Z,24.42
2023-02-16T13:34:59.404Z,23.15
2023-02-16T13:36:28.006Z,26.05
2023-02-16T13:38:03.086Z,24.65
2023-02-16T13:39:23.841Z,23.48
2023-02-16T13:40:44.916Z,23.25
2023-02-16T13:42:01.471Z,24.90
2023-02-16T13:43:31.022Z,29.17
2023-02-16T13:44:37.738Z,27.23
2023-02-16T13:45:43.590Z,24.45
2023-02-16T13:46:50.380Z,27.17
2023-02-16T13:47:55.276Z,25.73
2023-02-16T13:49:02.172Z,27.40
2023-02-16T13:50:24.867Z,30.00
2023-02-16T13:51:30.986Z,27.95
2023-02-16T13:52:35.933Z,28.05
2023-02-16T13:53:41.662Z,23.48
2023-02-16T13:54:43.805Z,24.25
2023-02-16T13:55:48.120Z,24.45
2023-02-16T13:56:49.761Z,24.85
2023-02-16T13:58:27.136Z,25.48
2023-02-16T14:00:00.486Z,25.27
2023-02-16T14:01:43.166Z,27.40
2023-02-16T14:02:58.540Z,27.48
2023-02-16T14:04:03.167Z,26.65
2023-02-16T14:05:10.807Z,24.55
2023-02-16T14:06:33.568Z,23.30
2023-02-16T14:07:38.010Z,25.17
2023-02-16T14:08:41.908Z,25.73
2023-02-16T14:09:48.550Z,24.30
2023-02-16T14:11:10.680Z,23.88
2023-02-16T14:12:24.234Z,26.63
2023-02-16T14:13:30.265Z,30.00
2023-02-16T14:14:35.640Z,29.13
2023-02-16T14:15:51.757Z,28.85
2023-02-16T14:16:57.501Z,27.27
2023-02-16T14:17:59.161Z,23.33
2023-02-16T14:19:17.537Z,26.55
2023-02-16T14:20:30.384Z,28.02
2023-02-16T14:21:39.526Z,27.80
2023-02-16T14:22:51.854Z,24.63
2023-02-16T14:23:58.742Z,36.20
2023-02-16T14:25:04.169Z,26.73
2023-02-16T14:26:14.893Z,27.33
2023-02-16T14:27:42.656Z,27.98
2023-02-16T14:29:09.458Z,26.63
2023-02-16T14:30:25.834Z,30.85
2023-02-16T14:31:30.864Z,24.00
2023-02-16T14:32:38.792Z,31.42
2023-02-16T14:33:45.111Z,27.25